Pekan, Malaysia
Current Conditions -  °F | °C
As of 9:00 AM on Wednesday 28 Jan 2015 (Local Time) from WMKD Reporting Station
Broken Clouds Broken Clouds  
Wind Chill: 75°   Ceiling: 28000
Heat Index: 75°   Visibility: 6mi
Dew Point: 72°   Wind: 5mph
Humidity: 89%   Direction: 350°N
Pressure: 29.88"   Gusts: NA
Location:  3.5°N, 103.42°E
Report Text: WMKD 280100Z 35004KT 9999 FEW025 BKN280 24/22 Q1012 NOSIG
Loading
Personal Weather Stations






























Interactive Weather Map New forecast layout! Learn more

10-Day Weather Forecast

Advertisements
Track Severe Weather on mobile